sensor_id;sensor_type;location;lat;lon;timestamp;pressure;altitude;pressure_sealevel;temperature;humidity
35226;BME280;21813;49.686;21.766;2023-11-21T00:01:31;97567.25;;;4.10;100.00
35226;BME280;21813;49.686;21.766;2023-11-21T00:04:17;97556.09;;;3.97;100.00
35226;BME280;21813;49.686;21.766;2023-11-21T00:06:42;97555.78;;;4.02;100.00
35226;BME280;21813;49.686;21.766;2023-11-21T00:09:09;97559.38;;;3.99;100.00
35226;BME280;21813;49.686;21.766;2023-11-21T00:11:43;97565.81;;;4.06;100.00
35226;BME280;21813;49.686;21.766;2023-11-21T00:14:15;97567.56;;;4.06;100.00
35226;BME280;21813;49.686;21.766;2023-11-21T00:16:41;97566.72;;;4.05;100.00
35226;BME280;21813;49.686;21.766;2023-11-21T00:22:37;97580.00;;;4.12;100.00
35226;BME280;21813;49.686;21.766;2023-11-21T00:25:10;97570.53;;;3.99;100.00
35226;BME280;21813;49.686;21.766;2023-11-21T00:30:26;97582.59;;;4.12;100.00
35226;BME280;21813;49.686;21.766;2023-11-21T00:32:56;97575.81;;;4.11;100.00
35226;BME280;21813;49.686;21.766;2023-11-21T00:35:28;97570.13;;;4.06;100.00
35226;BME280;21813;49.686;21.766;2023-11-21T00:38:01;97579.22;;;4.11;100.00
35226;BME280;21813;49.686;21.766;2023-11-21T00:40:28;97567.66;;;4.04;100.00
35226;BME280;21813;49.686;21.766;2023-11-21T00:42:55;97570.66;;;4.11;100.00
35226;BME280;21813;49.686;21.766;2023-11-21T00:45:41;97573.94;;;4.13;100.00
35226;BME280;21813;49.686;21.766;2023-11-21T00:49:07;97565.38;;;3.99;100.00
35226;BME280;21813;49.686;21.766;2023-11-21T00:51:57;97573.41;;;4.08;100.00
35226;BME280;21813;49.686;21.766;2023-11-21T00:54:37;97576.13;;;4.06;100.00
35226;BME280;21813;49.686;21.766;2023-11-21T00:57:03;97578.78;;;4.05;100.00
35226;BME280;21813;49.686;21.766;2023-11-21T01:02:44;97578.38;;;4.11;100.00
35226;BME280;21813;49.686;21.766;2023-11-21T01:05:21;97556.94;;;3.97;100.00
35226;BME280;21813;49.686;21.766;2023-11-21T01:07:46;97575.28;;;4.06;100.00
35226;BME280;21813;49.686;21.766;2023-11-21T01:10:14;97578.38;;;4.11;100.00
35226;BME280;21813;49.686;21.766;2023-11-21T01:12:41;97580.00;;;4.12;100.00
35226;BME280;21813;49.686;21.766;2023-11-21T01:15:18;97589.31;;;4.14;100.00
35226;BME280;21813;49.686;21.766;2023-11-21T01:17:47;97583.34;;;4.14;100.00
35226;BME280;21813;49.686;21.766;2023-11-21T01:20:14;97575.81;;;4.11;100.00
35226;BME280;21813;49.686;21.766;2023-11-21T01:22:42;97583.13;;;4.17;100.00
35226;BME280;21813;49.686;21.766;2023-11-21T01:25:15;97556.94;;;4.10;100.00
35226;BME280;21813;49.686;21.766;2023-11-21T01:27:47;97578.38;;;4.23;100.00
35226;BME280;21813;49.686;21.766;2023-11-21T01:34:15;97581.06;;;4.22;100.00
35226;BME280;21813;49.686;21.766;2023-11-21T01:37:03;97574.16;;;4.22;100.00
35226;BME280;21813;49.686;21.766;2023-11-21T01:39:34;97586.56;;;4.30;100.00
35226;BME280;21813;49.686;21.766;2023-11-21T01:42:01;97590.06;;;4.29;100.00
35226;BME280;21813;49.686;21.766;2023-11-21T01:44:45;97574.97;;;4.23;100.00
35226;BME280;21813;49.686;21.766;2023-11-21T01:47:16;97590.75;;;4.31;100.00
35226;BME280;21813;49.686;21.766;2023-11-21T01:49:49;97569.13;;;4.21;100.00
35226;BME280;21813;49.686;21.766;2023-11-21T01:52:27;97572.19;;;4.26;100.00
35226;BME280;21813;49.686;21.766;2023-11-21T01:54:59;97571.16;;;4.28;100.00
35226;BME280;21813;49.686;21.766;2023-11-21T01:57:32;97572.00;;;4.29;100.00
35226;BME280;21813;49.686;21.766;2023-11-21T02:13:25;97568.81;;;4.25;100.00
35226;BME280;21813;49.686;21.766;2023-11-21T02:16:01;97573.84;;;4.27;100.00
35226;BME280;21813;49.686;21.766;2023-11-21T02:18:33;97561.16;;;4.24;100.00
35226;BME280;21813;49.686;21.766;2023-11-21T02:21:14;97555.69;;;4.16;100.00
35226;BME280;21813;49.686;21.766;2023-11-21T02:23:51;97580.44;;;4.31;100.00
35226;BME280;21813;49.686;21.766;2023-11-21T02:26:25;97573.75;;;4.28;100.00
35226;BME280;21813;49.686;21.766;2023-11-21T02:29:09;97583.75;;;4.33;100.00
35226;BME280;21813;49.686;21.766;2023-11-21T02:32:01;97577.16;;;4.29;100.00
35226;BME280;21813;49.686;21.766;2023-11-21T02:34:43;97576.09;;;4.31;100.00
35226;BME280;21813;49.686;21.766;2023-11-21T02:37:17;97570.44;;;4.26;100.00
35226;BME280;21813;49.686;21.766;2023-11-21T02:40:24;97564.66;;;4.23;100.00
35226;BME280;21813;49.686;21.766;2023-11-21T02:43:42;97567.03;;;4.26;100.00
35226;BME280;21813;49.686;21.766;2023-11-21T02:46:26;97575.81;;;4.36;100.00
35226;BME280;21813;49.686;21.766;2023-11-21T02:49:03;97572.53;;;4.34;100.00
35226;BME280;21813;49.686;21.766;2023-11-21T02:52:02;97569.09;;;4.33;100.00
35226;BME280;21813;49.686;21.766;2023-11-21T02:58:27;97570.13;;;4.31;100.00
35226;BME280;21813;49.686;21.766;2023-11-21T03:01:47;97591.56;;;4.44;100.00
35226;BME280;21813;49.686;21.766;2023-11-21T03:20:04;97589.94;;;4.43;100.00
35226;BME280;21813;49.686;21.766;2023-11-21T03:22:54;97579.22;;;4.36;100.00
35226;BME280;21813;49.686;21.766;2023-11-21T03:25:30;97580.03;;;4.37;100.00
35226;BME280;21813;49.686;21.766;2023-11-21T03:28:05;97569.94;;;4.34;100.00
35226;BME280;21813;49.686;21.766;2023-11-21T03:30:33;97590.56;;;4.47;100.00
35226;BME280;21813;49.686;21.766;2023-11-21T03:33:13;97593.66;;;4.39;100.00
35226;BME280;21813;49.686;21.766;2023-11-21T03:36:25;97588.28;;;4.42;100.00
35226;BME280;21813;49.686;21.766;2023-11-21T03:39:31;97590.97;;;4.40;100.00
35226;BME280;21813;49.686;21.766;2023-11-21T03:41:56;97580.44;;;4.31;100.00
35226;BME280;21813;49.686;21.766;2023-11-21T03:44:31;97585.41;;;4.34;100.00
35226;BME280;21813;49.686;21.766;2023-11-21T03:51:58;97589.13;;;4.30;100.00
35226;BME280;21813;49.686;21.766;2023-11-21T04:00:49;97601.59;;;4.36;100.00
35226;BME280;21813;49.686;21.766;2023-11-21T04:07:00;97586.03;;;4.25;100.00
35226;BME280;21813;49.686;21.766;2023-11-21T04:09:41;97610.38;;;4.33;100.00
35226;BME280;21813;49.686;21.766;2023-11-21T04:12:16;97606.44;;;4.28;100.00
35226;BME280;21813;49.686;21.766;2023-11-21T04:14:42;97611.91;;;4.36;100.00
35226;BME280;21813;49.686;21.766;2023-11-21T04:17:09;97587.03;;;4.22;100.00
35226;BME280;21813;49.686;21.766;2023-11-21T04:19:38;97583.31;;;4.26;100.00
35226;BME280;21813;49.686;21.766;2023-11-21T04:22:12;97604.38;;;4.33;100.00
35226;BME280;21813;49.686;21.766;2023-11-21T04:24:38;97586.66;;;4.28;100.00
35226;BME280;21813;49.686;21.766;2023-11-21T04:27:19;97583.31;;;4.26;100.00
35226;BME280;21813;49.686;21.766;2023-11-21T04:33:13;97575.91;;;4.22;100.00
35226;BME280;21813;49.686;21.766;2023-11-21T04:35:59;97587.47;;;4.29;100.00
35226;BME280;21813;49.686;21.766;2023-11-21T04:38:35;97599.94;;;4.35;100.00
35226;BME280;21813;49.686;21.766;2023-11-21T04:41:01;97606.03;;;4.34;100.00
35226;BME280;21813;49.686;21.766;2023-11-21T04:43:46;97596.34;;;4.25;100.00
35226;BME280;21813;49.686;21.766;2023-11-21T04:46:12;97604.59;;;4.30;100.00
35226;BME280;21813;49.686;21.766;2023-11-21T04:48:45;97578.78;;;4.17;100.00
35226;BME280;21813;49.686;21.766;2023-11-21T04:51:23;97600.06;;;4.33;100.00
35226;BME280;21813;49.686;21.766;2023-11-21T04:54:24;97591.38;;;4.22;100.00
35226;BME280;21813;49.686;21.766;2023-11-21T04:57:00;97593.25;;;4.20;100.00
35226;BME280;21813;49.686;21.766;2023-11-21T04:59:57;97600.25;;;4.30;100.00
35226;BME280;21813;49.686;21.766;2023-11-21T05:02:29;97590.16;;;4.27;100.00
35226;BME280;21813;49.686;21.766;2023-11-21T05:04:56;97605.22;;;4.33;100.00
35226;BME280;21813;49.686;21.766;2023-11-21T05:07:22;97586.66;;;4.28;100.00
35226;BME280;21813;49.686;21.766;2023-11-21T05:10:26;97614.31;;;4.39;100.00
35226;BME280;21813;49.686;21.766;2023-11-21T05:13:28;97600.47;;;4.27;100.00
35226;BME280;21813;49.686;21.766;2023-11-21T05:19:51;97606.56;;;4.39;100.00
35226;BME280;21813;49.686;21.766;2023-11-21T05:32:46;97605.63;;;4.40;100.00
35226;BME280;21813;49.686;21.766;2023-11-21T05:35:24;97606.56;;;4.39;100.00
35226;BME280;21813;49.686;21.766;2023-11-21T05:38:11;97615.75;;;4.43;100.00
35226;BME280;21813;49.686;21.766;2023-11-21T05:41:17;97602.13;;;4.41;100.00
35226;BME280;21813;49.686;21.766;2023-11-21T05:43:45;97608.84;;;4.43;100.00
35226;BME280;21813;49.686;21.766;2023-11-21T05:46:35;97608.94;;;4.42;100.00
35226;BME280;21813;49.686;21.766;2023-11-21T05:49:01;97625.63;;;4.49;100.00
35226;BME280;21813;49.686;21.766;2023-11-21T05:51:40;97619.78;;;4.47;100.00
35226;BME280;21813;49.686;21.766;2023-11-21T05:56:47;97615.75;;;4.43;100.00
35226;BME280;21813;49.686;21.766;2023-11-21T05:59:34;97628.97;;;4.51;100.00
35226;BME280;21813;49.686;21.766;2023-11-21T06:08:23;97639.28;;;4.51;100.00
35226;BME280;21813;49.686;21.766;2023-11-21T06:10:50;97639.88;;;4.55;100.00
35226;BME280;21813;49.686;21.766;2023-11-21T06:13:56;97638.88;;;4.57;100.00
35226;BME280;21813;49.686;21.766;2023-11-21T06:16:27;97633.72;;;4.57;100.00
35226;BME280;21813;49.686;21.766;2023-11-21T06:18:53;97638.88;;;4.57;100.00
35226;BME280;21813;49.686;21.766;2023-11-21T06:21:33;97634.53;;;4.58;100.00
35226;BME280;21813;49.686;21.766;2023-11-21T06:24:18;97642.16;;;4.59;100.00
35226;BME280;21813;49.686;21.766;2023-11-21T06:26:49;97628.03;;;4.52;100.00
35226;BME280;21813;49.686;21.766;2023-11-21T06:29:16;97641.97;;;4.62;100.00
35226;BME280;21813;49.686;21.766;2023-11-21T06:31:42;97655.38;;;4.67;100.00
35226;BME280;21813;49.686;21.766;2023-11-21T06:34:11;97652.69;;;4.69;100.00
35226;BME280;21813;49.686;21.766;2023-11-21T06:36:36;97669.00;;;4.69;100.00
35226;BME280;21813;49.686;21.766;2023-11-21T06:39:02;97655.59;;;4.64;100.00
35226;BME280;21813;49.686;21.766;2023-11-21T06:41:28;97650.41;;;4.64;100.00
35226;BME280;21813;49.686;21.766;2023-11-21T06:44:09;97650.72;;;4.60;100.00
35226;BME280;21813;49.686;21.766;2023-11-21T06:46:34;97656.72;;;4.73;100.00
35226;BME280;21813;49.686;21.766;2023-11-21T06:49:01;97661.03;;;4.72;100.00
35226;BME280;21813;49.686;21.766;2023-11-21T06:51:27;97660.34;;;4.70;100.00
35226;BME280;21813;49.686;21.766;2023-11-21T06:53:54;97667.66;;;4.76;100.00
35226;BME280;21813;49.686;21.766;2023-11-21T06:56:20;97670.22;;;4.76;100.00
35226;BME280;21813;49.686;21.766;2023-11-21T06:58:47;97664.28;;;4.76;100.00
35226;BME280;21813;49.686;21.766;2023-11-21T07:01:13;97677.38;;;4.85;100.00
35226;BME280;21813;49.686;21.766;2023-11-21T07:03:39;97678.31;;;4.84;100.00
35226;BME280;21813;49.686;21.766;2023-11-21T07:06:06;97669.31;;;4.90;100.00
35226;BME280;21813;49.686;21.766;2023-11-21T07:08:33;97668.50;;;4.89;100.00
35226;BME280;21813;49.686;21.766;2023-11-21T07:10:58;97674.97;;;4.95;100.00
35226;BME280;21813;49.686;21.766;2023-11-21T07:13:24;97670.84;;;4.93;100.00
35226;BME280;21813;49.686;21.766;2023-11-21T07:15:51;97677.69;;;4.94;100.00
35226;BME280;21813;49.686;21.766;2023-11-21T07:18:17;97669.09;;;4.93;100.00
35226;BME280;21813;49.686;21.766;2023-11-21T07:20:43;97678.06;;;5.00;100.00
35226;BME280;21813;49.686;21.766;2023-11-21T07:23:10;97674.78;;;4.98;100.00
35226;BME280;21813;49.686;21.766;2023-11-21T07:25:39;97682.00;;;5.06;100.00
35226;BME280;21813;49.686;21.766;2023-11-21T07:28:09;97680.56;;;5.02;100.00
35226;BME280;21813;49.686;21.766;2023-11-21T07:30:35;97677.25;;;5.00;100.00
35226;BME280;21813;49.686;21.766;2023-11-21T07:33:02;97672.28;;;4.97;100.00
35226;BME280;21813;49.686;21.766;2023-11-21T07:35:35;97683.88;;;5.04;100.00
35226;BME280;21813;49.686;21.766;2023-11-21T07:38:15;97690.47;;;5.08;100.00
35226;BME280;21813;49.686;21.766;2023-11-21T07:40:43;97690.25;;;5.11;100.00
35226;BME280;21813;49.686;21.766;2023-11-21T07:43:09;97687.75;;;5.09;100.00
35226;BME280;21813;49.686;21.766;2023-11-21T07:45:36;97698.53;;;5.16;100.00
35226;BME280;21813;49.686;21.766;2023-11-21T07:48:02;97680.34;;;5.05;100.00
35226;BME280;21813;49.686;21.766;2023-11-21T07:50:30;97693.13;;;5.19;100.00
35226;BME280;21813;49.686;21.766;2023-11-21T07:52:57;97697.97;;;5.23;100.00
35226;BME280;21813;49.686;21.766;2023-11-21T07:55:24;97677.03;;;5.15;100.00
35226;BME280;21813;49.686;21.766;2023-11-21T07:57:50;97692.72;;;5.25;100.00
35226;BME280;21813;49.686;21.766;2023-11-21T08:00:18;97695.81;;;5.30;100.00
35226;BME280;21813;49.686;21.766;2023-11-21T08:02:44;97701.47;;;5.35;100.00
35226;BME280;21813;49.686;21.766;2023-11-21T08:05:19;97687.31;;;5.28;100.00
35226;BME280;21813;49.686;21.766;2023-11-21T08:07:50;97683.81;;;5.29;100.00
35226;BME280;21813;49.686;21.766;2023-11-21T08:10:22;97691.84;;;5.37;100.00
35226;BME280;21813;49.686;21.766;2023-11-21T08:12:48;97688.13;;;5.41;100.00
35226;BME280;21813;49.686;21.766;2023-11-21T08:15:17;97688.31;;;5.51;100.00
35226;BME280;21813;49.686;21.766;2023-11-21T08:17:43;97696.88;;;5.51;100.00
35226;BME280;21813;49.686;21.766;2023-11-21T08:20:11;97696.47;;;5.57;100.00
35226;BME280;21813;49.686;21.766;2023-11-21T08:22:37;97702.13;;;5.62;100.00
35226;BME280;21813;49.686;21.766;2023-11-21T08:25:03;97709.47;;;5.68;100.00
35226;BME280;21813;49.686;21.766;2023-11-21T08:27:30;97709.34;;;5.70;100.00
35226;BME280;21813;49.686;21.766;2023-11-21T08:29:57;97687.56;;;5.61;100.00
35226;BME280;21813;49.686;21.766;2023-11-21T08:32:23;97705.00;;;5.70;100.00
35226;BME280;21813;49.686;21.766;2023-11-21T08:34:51;97691.78;;;5.62;100.00
35226;BME280;21813;49.686;21.766;2023-11-21T08:37:19;97705.22;;;5.67;100.00
35226;BME280;21813;49.686;21.766;2023-11-21T08:39:47;97695.91;;;5.65;100.00
35226;BME280;21813;49.686;21.766;2023-11-21T08:42:18;97705.31;;;5.66;100.00
35226;BME280;21813;49.686;21.766;2023-11-21T08:44:45;97692.03;;;5.59;100.00
35226;BME280;21813;49.686;21.766;2023-11-21T08:57:00;97728.41;;;5.56;100.00
35226;BME280;21813;49.686;21.766;2023-11-21T08:59:27;97720.78;;;5.55;100.00
35226;BME280;21813;49.686;21.766;2023-11-21T09:01:53;97723.47;;;5.53;100.00
35226;BME280;21813;49.686;21.766;2023-11-21T09:04:18;97714.38;;;5.48;100.00
35226;BME280;21813;49.686;21.766;2023-11-21T09:06:44;97710.44;;;5.42;100.00
35226;BME280;21813;49.686;21.766;2023-11-21T09:09:10;97716.34;;;5.44;100.00
35226;BME280;21813;49.686;21.766;2023-11-21T09:11:36;97719.31;;;5.51;100.00
35226;BME280;21813;49.686;21.766;2023-11-21T09:14:04;97716.84;;;5.49;100.00
35226;BME280;21813;49.686;21.766;2023-11-21T09:16:29;97704.34;;;5.43;100.00
35226;BME280;21813;49.686;21.766;2023-11-21T09:18:55;97713.75;;;5.44;100.00
35226;BME280;21813;49.686;21.766;2023-11-21T09:21:21;97711.88;;;5.46;100.00
35226;BME280;21813;49.686;21.766;2023-11-21T09:23:48;97720.38;;;5.48;100.00
35226;BME280;21813;49.686;21.766;2023-11-21T09:26:14;97713.53;;;5.47;100.00
35226;BME280;21813;49.686;21.766;2023-11-21T09:28:47;97707.44;;;5.48;100.00
35226;BME280;21813;49.686;21.766;2023-11-21T09:31:13;97718.66;;;5.60;100.00
35226;BME280;21813;49.686;21.766;2023-11-21T09:33:43;97697.09;;;5.48;100.00
35226;BME280;21813;49.686;21.766;2023-11-21T09:36:15;97707.72;;;5.56;100.00
35226;BME280;21813;49.686;21.766;2023-11-21T09:38:47;97711.75;;;5.60;100.00
35226;BME280;21813;49.686;21.766;2023-11-21T09:41:25;97702.38;;;5.59;100.00
35226;BME280;21813;49.686;21.766;2023-11-21T09:43:57;97709.66;;;5.65;100.00
35226;BME280;21813;49.686;21.766;2023-11-21T09:46:27;97694.72;;;5.58;100.00
35226;BME280;21813;49.686;21.766;2023-11-21T09:48:54;97708.31;;;5.72;100.00
35226;BME280;21813;49.686;21.766;2023-11-21T09:51:23;97711.59;;;5.74;100.00
35226;BME280;21813;49.686;21.766;2023-11-21T09:53:55;97695.00;;;5.66;100.00
35226;BME280;21813;49.686;21.766;2023-11-21T09:56:24;97702.19;;;5.73;100.00
35226;BME280;21813;49.686;21.766;2023-11-21T09:58:53;97706.34;;;5.76;100.00
35226;BME280;21813;49.686;21.766;2023-11-21T10:01:20;97713.44;;;5.85;100.00
35226;BME280;21813;49.686;21.766;2023-11-21T10:03:48;97721.13;;;5.87;100.00
35226;BME280;21813;49.686;21.766;2023-11-21T10:06:14;97712.41;;;5.88;100.00
35226;BME280;21813;49.686;21.766;2023-11-21T10:08:42;97708.47;;;5.95;100.00
35226;BME280;21813;49.686;21.766;2023-11-21T10:11:08;97705.06;;;5.94;100.00
35226;BME280;21813;49.686;21.766;2023-11-21T10:13:38;97691.28;;;5.94;100.00
35226;BME280;21813;49.686;21.766;2023-11-21T10:16:07;97704.50;;;6.02;100.00
35226;BME280;21813;49.686;21.766;2023-11-21T10:18:38;97703.31;;;6.06;100.00
35226;BME280;21813;49.686;21.766;2023-11-21T10:21:07;97717.75;;;6.21;100.00
35226;BME280;21813;49.686;21.766;2023-11-21T10:23:36;97712.09;;;6.16;100.00
35226;BME280;21813;49.686;21.766;2023-11-21T10:26:02;97697.53;;;6.15;100.00
35226;BME280;21813;49.686;21.766;2023-11-21T10:28:29;97698.22;;;6.17;100.00
35226;BME280;21813;49.686;21.766;2023-11-21T10:30:55;97716.16;;;6.31;100.00
35226;BME280;21813;49.686;21.766;2023-11-21T10:33:27;97722.97;;;6.32;100.00
35226;BME280;21813;49.686;21.766;2023-11-21T10:35:54;97716.16;;;6.31;100.00
35226;BME280;21813;49.686;21.766;2023-11-21T10:38:21;97710.97;;;6.31;100.00
35226;BME280;21813;49.686;21.766;2023-11-21T10:40:48;97709.13;;;6.33;100.00
35226;BME280;21813;49.686;21.766;2023-11-21T10:43:39;97719.00;;;6.39;100.00
35226;BME280;21813;49.686;21.766;2023-11-21T10:46:05;97701.78;;;6.27;100.00
35226;BME280;21813;49.686;21.766;2023-11-21T10:48:33;97705.78;;;6.31;100.00
35226;BME280;21813;49.686;21.766;2023-11-21T10:51:06;97716.78;;;6.46;100.00
35226;BME280;21813;49.686;21.766;2023-11-21T10:53:33;97701.00;;;6.38;100.00
35226;BME280;21813;49.686;21.766;2023-11-21T10:56:05;97719.16;;;6.49;100.00
35226;BME280;21813;49.686;21.766;2023-11-21T10:58:33;97721.41;;;6.53;100.00
35226;BME280;21813;49.686;21.766;2023-11-21T11:01:02;97720.56;;;6.53;100.00
35226;BME280;21813;49.686;21.766;2023-11-21T11:03:31;97704.44;;;6.49;100.00
35226;BME280;21813;49.686;21.766;2023-11-21T11:06:02;97712.69;;;6.54;100.00
35226;BME280;21813;49.686;21.766;2023-11-21T11:08:30;97704.19;;;6.52;100.00
35226;BME280;21813;49.686;21.766;2023-11-21T11:10:57;97700.69;;;6.53;100.00
35226;BME280;21813;49.686;21.766;2023-11-21T11:13:25;97705.66;;;6.56;100.00
35226;BME280;21813;49.686;21.766;2023-11-21T11:15:51;97708.69;;;6.61;100.00
35226;BME280;21813;49.686;21.766;2023-11-21T11:18:29;97709.53;;;6.62;100.00
35226;BME280;21813;49.686;21.766;2023-11-21T11:23:49;97708.69;;;6.61;100.00
35226;BME280;21813;49.686;21.766;2023-11-21T11:26:34;97718.63;;;6.68;100.00
35226;BME280;21813;49.686;21.766;2023-11-21T11:37:49;97726.91;;;6.84;100.00
35226;BME280;21813;49.686;21.766;2023-11-21T11:40:19;97717.72;;;6.80;100.00
35226;BME280;21813;49.686;21.766;2023-11-21T11:42:58;97721.25;;;6.79;100.00
35226;BME280;21813;49.686;21.766;2023-11-21T11:45:32;97709.22;;;6.78;100.00
35226;BME280;21813;49.686;21.766;2023-11-21T11:48:01;97725.34;;;6.81;100.00
35226;BME280;21813;49.686;21.766;2023-11-21T11:50:33;97724.78;;;6.89;100.00
35226;BME280;21813;49.686;21.766;2023-11-21T11:53:12;97712.97;;;6.85;100.00
35226;BME280;21813;49.686;21.766;2023-11-21T11:55:40;97731.16;;;6.96;100.00
35226;BME280;21813;49.686;21.766;2023-11-21T11:58:10;97715.38;;;6.88;100.00
35226;BME280;21813;49.686;21.766;2023-11-21T12:00:37;97710.19;;;6.88;100.00
35226;BME280;21813;49.686;21.766;2023-11-21T12:03:07;97718.78;;;6.99;100.00
35226;BME280;21813;49.686;21.766;2023-11-21T12:05:35;97712.09;;;6.97;100.00
35226;BME280;21813;49.686;21.766;2023-11-21T12:08:06;97721.03;;;7.04;100.00
35226;BME280;21813;49.686;21.766;2023-11-21T12:10:36;97697.00;;;7.02;100.00
35226;BME280;21813;49.686;21.766;2023-11-21T12:13:06;97730.94;;;7.21;100.00
35226;BME280;21813;49.686;21.766;2023-11-21T12:15:39;97694.91;;;7.07;100.00
35226;BME280;21813;49.686;21.766;2023-11-21T12:18:06;97709.75;;;7.16;100.00
35226;BME280;21813;49.686;21.766;2023-11-21T12:20:33;97719.88;;;7.19;100.00
35226;BME280;21813;49.686;21.766;2023-11-21T12:23:05;97710.78;;;7.14;100.00
35226;BME280;21813;49.686;21.766;2023-11-21T12:25:31;97711.63;;;7.14;100.00
35226;BME280;21813;49.686;21.766;2023-11-21T12:28:00;97720.81;;;7.18;100.00
35226;BME280;21813;49.686;21.766;2023-11-21T12:30:27;97731.63;;;7.23;100.00
35226;BME280;21813;49.686;21.766;2023-11-21T12:32:58;97721.16;;;7.14;100.00
35226;BME280;21813;49.686;21.766;2023-11-21T12:35:25;97735.16;;;7.22;100.00
35226;BME280;21813;49.686;21.766;2023-11-21T12:37:57;97749.88;;;7.22;100.00
35226;BME280;21813;49.686;21.766;2023-11-21T12:40:23;97749.09;;;7.21;100.00
35226;BME280;21813;49.686;21.766;2023-11-21T12:42:52;97735.19;;;7.11;100.00
35226;BME280;21813;49.686;21.766;2023-11-21T12:45:23;97738.81;;;7.08;100.00
35226;BME280;21813;49.686;21.766;2023-11-21T12:48:00;97734.69;;;7.06;100.00
35226;BME280;21813;49.686;21.766;2023-11-21T12:50:31;97749.06;;;7.10;100.00
35226;BME280;21813;49.686;21.766;2023-11-21T12:53:06;97758.97;;;7.16;100.00
35226;BME280;21813;49.686;21.766;2023-11-21T12:55:35;97755.19;;;7.09;100.00
35226;BME280;21813;49.686;21.766;2023-11-21T12:58:06;97733.28;;;7.02;100.00
35226;BME280;21813;49.686;21.766;2023-11-21T13:00:44;97761.78;;;7.13;100.00
35226;BME280;21813;49.686;21.766;2023-11-21T13:03:12;97761.78;;;7.13;100.00
35226;BME280;21813;49.686;21.766;2023-11-21T13:05:53;97764.03;;;7.06;100.00
35226;BME280;21813;49.686;21.766;2023-11-21T13:08:26;97758.94;;;7.05;100.00
35226;BME280;21813;49.686;21.766;2023-11-21T13:10:56;97769.78;;;7.10;100.00
35226;BME280;21813;49.686;21.766;2023-11-21T13:13:24;97754.22;;;6.99;100.00
35226;BME280;21813;49.686;21.766;2023-11-21T13:15:52;97766.47;;;7.08;100.00
35226;BME280;21813;49.686;21.766;2023-11-21T13:18:20;97759.41;;;6.99;100.00
35226;BME280;21813;49.686;21.766;2023-11-21T13:20:47;97767.66;;;7.04;100.00
35226;BME280;21813;49.686;21.766;2023-11-21T13:23:14;97772.25;;;7.00;100.00
35226;BME280;21813;49.686;21.766;2023-11-21T13:25:42;97766.59;;;6.95;100.00
35226;BME280;21813;49.686;21.766;2023-11-21T13:28:08;97773.44;;;6.96;100.00
35226;BME280;21813;49.686;21.766;2023-11-21T13:30:38;97770.00;;;6.96;100.00
35226;BME280;21813;49.686;21.766;2023-11-21T13:33:11;97784.13;;;7.03;100.00
35226;BME280;21813;49.686;21.766;2023-11-21T13:35:44;97782.72;;;6.99;100.00
35226;BME280;21813;49.686;21.766;2023-11-21T13:38:15;97786.97;;;7.00;100.00
35226;BME280;21813;49.686;21.766;2023-11-21T13:40:50;97786.38;;;6.96;100.00
35226;BME280;21813;49.686;21.766;2023-11-21T13:43:25;97782.22;;;6.94;100.00
35226;BME280;21813;49.686;21.766;2023-11-21T13:45:53;97794.84;;;6.98;100.00
35226;BME280;21813;49.686;21.766;2023-11-21T13:48:43;97780.31;;;6.85;100.00
35226;BME280;21813;49.686;21.766;2023-11-21T13:51:16;97800.38;;;6.94;100.00
35226;BME280;21813;49.686;21.766;2023-11-21T13:53:47;97791.06;;;6.91;100.00
35226;BME280;21813;49.686;21.766;2023-11-21T13:56:17;97789.31;;;6.92;100.00
35226;BME280;21813;49.686;21.766;2023-11-21T13:58:51;97795.66;;;6.88;100.00
35226;BME280;21813;49.686;21.766;2023-11-21T14:01:19;97799.69;;;6.92;100.00
35226;BME280;21813;49.686;21.766;2023-11-21T14:04:03;97798.47;;;6.85;100.00
35226;BME280;21813;49.686;21.766;2023-11-21T14:06:42;97809.81;;;6.95;100.00
35226;BME280;21813;49.686;21.766;2023-11-21T14:09:17;97806.84;;;6.88;100.00
35226;BME280;21813;49.686;21.766;2023-11-21T14:12:01;97811.06;;;6.89;100.00
35226;BME280;21813;49.686;21.766;2023-11-21T14:14:33;97826.59;;;6.89;100.00
35226;BME280;21813;49.686;21.766;2023-11-21T14:16:59;97802.34;;;6.79;100.00
35226;BME280;21813;49.686;21.766;2023-11-21T14:19:28;97817.75;;;6.81;100.00
35226;BME280;21813;49.686;21.766;2023-11-21T14:21:58;97806.81;;;6.77;100.00
35226;BME280;21813;49.686;21.766;2023-11-21T14:24:24;97810.13;;;6.79;100.00
35226;BME280;21813;49.686;21.766;2023-11-21T14:26:51;97808.47;;;6.78;100.00
35226;BME280;21813;49.686;21.766;2023-11-21T14:29:18;97816.56;;;6.74;100.00
35226;BME280;21813;49.686;21.766;2023-11-21T14:31:51;97820.59;;;6.78;100.00
35226;BME280;21813;49.686;21.766;2023-11-21T14:34:22;97835.88;;;6.81;100.00
35226;BME280;21813;49.686;21.766;2023-11-21T14:36:47;97817.94;;;6.66;100.00
35226;BME280;21813;49.686;21.766;2023-11-21T14:39:17;97839.53;;;6.78;100.00
35226;BME280;21813;49.686;21.766;2023-11-21T14:41:55;97844.72;;;6.78;100.00
35226;BME280;21813;49.686;21.766;2023-11-21T14:44:28;97838.13;;;6.74;100.00
35226;BME280;21813;49.686;21.766;2023-11-21T14:46:58;97849.81;;;6.80;100.00
35226;BME280;21813;49.686;21.766;2023-11-21T14:49:26;97848.25;;;6.77;100.00
35226;BME280;21813;49.686;21.766;2023-11-21T14:51:56;97830.88;;;6.66;100.00
35226;BME280;21813;49.686;21.766;2023-11-21T14:54:43;97857.78;;;6.77;100.00
35226;BME280;21813;49.686;21.766;2023-11-21T14:57:13;97852.59;;;6.77;100.00
35226;BME280;21813;49.686;21.766;2023-11-21T14:59:50;97846.22;;;6.70;100.00
35226;BME280;21813;49.686;21.766;2023-11-21T15:02:23;97853.53;;;6.76;100.00
35226;BME280;21813;49.686;21.766;2023-11-21T15:05:11;97858.00;;;6.74;100.00
35226;BME280;21813;49.686;21.766;2023-11-21T15:07:41;97842.22;;;6.65;100.00